VIR3 EGLL-KJFK
Flight info
| Callsign | VIR3 |
|---|---|
| Flight time | N/A |
| Altitude | 36000 |
| Route | CPT L9 DIDZA N14 OKTAD DCT MEDOG DCT VATRY DCT DOGAL/M082F370 DCT 54N020W 53N030W 5130N04000W 50N050W DCT ELSIR/N0473F380 N406A TOPPS DCT ENE PARCH4 |
| Aircraft | A346/H-SDE2E3FGHIJ3J4J5M1RWXY/LB1D1 |
Departure
| Time | 2026-05-07 17:44 |
|---|---|
| Airport | London Heathrow Airport (EGLL) |
Arrival
| Time | N/A |
|---|---|
| Airport | John F. Kennedy International Airport (KJFK) |
| Time | Latitude | Longitude | Altitude | Speed | Heading |
|---|---|---|---|---|---|
| 2026-05-07 17:04 | 51.47054 | -0.47992 | 93 ft | 0 kts | 269° |
| 2026-05-07 17:30 | 51.47054 | -0.47978 | 94 ft | 4 kts | 271° |
| 2026-05-07 17:31 | 51.47053 | -0.47951 | 93 ft | 4 kts | 276° |
| 2026-05-07 17:31 | 51.47052 | -0.47929 | 95 ft | 4 kts | 270° |
| 2026-05-07 17:31 | 51.47052 | -0.47915 | 95 ft | 4 kts | 242° |
| 2026-05-07 17:31 | 51.47058 | -0.47900 | 94 ft | 4 kts | 231° |
| 2026-05-07 17:32 | 51.47068 | -0.47884 | 93 ft | 4 kts | 213° |
| 2026-05-07 17:32 | 51.47081 | -0.47874 | 94 ft | 4 kts | 193° |
| 2026-05-07 17:32 | 51.47096 | -0.47871 | 92 ft | 4 kts | 180° |
| 2026-05-07 17:32 | 51.47111 | -0.47871 | 94 ft | 4 kts | 178° |
| 2026-05-07 17:33 | 51.47120 | -0.47872 | 93 ft | 1 kts | 179° |
| 2026-05-07 17:33 | 51.47124 | -0.47872 | 93 ft | 0 kts | 179° |
| 2026-05-07 17:36 | 51.47119 | -0.47872 | 93 ft | 4 kts | 179° |
| 2026-05-07 17:36 | 51.47077 | -0.47869 | 92 ft | 8 kts | 178° |
| 2026-05-07 17:36 | 51.47023 | -0.47869 | 93 ft | 13 kts | 182° |
| 2026-05-07 17:37 | 51.46919 | -0.47872 | 93 ft | 16 kts | 180° |
| 2026-05-07 17:37 | 51.46817 | -0.47873 | 93 ft | 13 kts | 180° |
| 2026-05-07 17:37 | 51.46771 | -0.47873 | 93 ft | 8 kts | 180° |
| 2026-05-07 17:37 | 51.46716 | -0.47871 | 93 ft | 10 kts | 181° |
| 2026-05-07 17:38 | 51.46668 | -0.47919 | 94 ft | 11 kts | 243° |
| 2026-05-07 17:38 | 51.46652 | -0.48031 | 94 ft | 9 kts | 273° |
| 2026-05-07 17:38 | 51.46653 | -0.48065 | 94 ft | 9 kts | 271° |
| 2026-05-07 17:38 | 51.46653 | -0.48147 | 94 ft | 9 kts | 270° |
| 2026-05-07 17:39 | 51.46653 | -0.48222 | 95 ft | 12 kts | 270° |
| 2026-05-07 17:39 | 51.46653 | -0.48237 | 95 ft | 12 kts | 269° |
| 2026-05-07 17:39 | 51.46652 | -0.48309 | 96 ft | 12 kts | 269° |
| 2026-05-07 17:39 | 51.46652 | -0.48432 | 96 ft | 11 kts | 270° |
| 2026-05-07 17:40 | 51.46650 | -0.48541 | 98 ft | 12 kts | 269° |
| 2026-05-07 17:40 | 51.46648 | -0.48669 | 97 ft | 15 kts | 263° |
| 2026-05-07 17:40 | 51.46612 | -0.48755 | 96 ft | 13 kts | 208° |
| 2026-05-07 17:40 | 51.46530 | -0.48775 | 94 ft | 14 kts | 168° |
| 2026-05-07 17:41 | 51.46506 | -0.48755 | 98 ft | 14 kts | 144° |
| 2026-05-07 17:41 | 51.46490 | -0.48728 | 96 ft | 11 kts | 118° |
| 2026-05-07 17:41 | 51.46485 | -0.48708 | 96 ft | 12 kts | 110° |
| 2026-05-07 17:41 | 51.46484 | -0.48702 | 96 ft | 12 kts | 109° |
| 2026-05-07 17:42 | 51.46473 | -0.48631 | 97 ft | 13 kts | 96° |
| 2026-05-07 17:42 | 51.46471 | -0.48504 | 97 ft | 16 kts | 89° |
| 2026-05-07 17:42 | 51.46477 | -0.48146 | 96 ft | 62 kts | 88° |
| 2026-05-07 17:42 | 51.46481 | -0.47398 | 90 ft | 103 kts | 90° |
| 2026-05-07 17:43 | 51.46483 | -0.46275 | 98 ft | 140 kts | 90° |
| 2026-05-07 17:43 | 51.46488 | -0.44675 | 98 ft | 175 kts | 90° |
| 2026-05-07 17:43 | 51.46509 | -0.42691 | 383 ft | 185 kts | 89° |
| 2026-05-07 17:43 | 51.46528 | -0.41958 | 590 ft | 184 kts | 87° |
| 2026-05-07 17:44 | 51.46749 | -0.40346 | 983 ft | 188 kts | 76° |
| 2026-05-07 17:44 | 51.46894 | -0.39147 | 1241 ft | 191 kts | 88° |
| 2026-05-07 17:44 | 51.46841 | -0.37584 | 1546 ft | 194 kts | 104° |
| 2026-05-07 17:44 | 51.46835 | -0.37533 | 1554 ft | 194 kts | 104° |
| 2026-05-07 17:45 | 51.46529 | -0.36134 | 1868 ft | 194 kts | 120° |
| 2026-05-07 17:45 | 51.45921 | -0.34777 | 2194 ft | 194 kts | 139° |
| 2026-05-07 17:45 | 51.44973 | -0.33833 | 2483 ft | 197 kts | 163° |
| 2026-05-07 17:45 | 51.43753 | -0.33659 | 2839 ft | 201 kts | 189° |
| 2026-05-07 17:46 | 51.42592 | -0.34415 | 3223 ft | 206 kts | 215° |
| 2026-05-07 17:46 | 51.42271 | -0.34822 | 3346 ft | 208 kts | 219° |